Time;durP1;ratioP1;P1;durP2;ratioP2;P2;SDS_P1;SDS_P2;PMS_P1;PMS_P2;Temp;Humidity;BMP_temperature;BMP_pressure;BME280_temperature;BME280_humidity;BME280_pressure;Samples;Min_cycle;Max_cycle;Signal;HPM_P1;HPM_P2
2022/09/22 00:01:20;;;;;;;7.40;6.57;;;9.10;99.90;;;;;;5036640;28;20466;-87
2022/09/22 00:03:49;;;;;;;8.20;7.33;;;9.10;99.90;;;;;;5043403;28;20450;-88
2022/09/22 00:06:19;;;;;;;9.33;6.60;;;9.10;99.90;;;;;;5038157;28;20484;-88
2022/09/22 00:08:49;;;;;;;10.07;7.73;;;9.00;99.90;;;;;;5042613;28;20446;-88
2022/09/22 00:11:17;;;;;;;11.23;8.23;;;9.00;99.90;;;;;;5052424;28;20848;-88
2022/09/22 00:13:49;;;;;;;11.50;8.63;;;9.00;99.90;;;;;;5047874;28;20442;-89
2022/09/22 00:16:17;;;;;;;9.03;7.83;;;8.90;99.90;;;;;;5036325;28;20463;-88
2022/09/22 00:18:44;;;;;;;11.47;8.03;;;9.00;99.90;;;;;;5037433;28;20601;-88
2022/09/22 00:21:13;;;;;;;9.93;7.57;;;8.90;99.90;;;;;;5044171;28;20490;-88
2022/09/22 00:23:41;;;;;;;8.20;6.67;;;8.90;99.90;;;;;;5060142;28;20453;-89
2022/09/22 00:26:10;;;;;;;13.50;7.57;;;8.90;99.90;;;;;;5058142;28;20446;-90
2022/09/22 00:28:40;;;;;;;8.57;7.20;;;8.90;99.90;;;;;;5042936;28;20446;-89
2022/09/22 00:31:11;;;;;;;15.07;7.60;;;8.80;99.90;;;;;;5045524;28;20492;-89
2022/09/22 00:33:39;;;;;;;8.63;7.70;;;8.80;99.90;;;;;;5044012;28;20509;-89
2022/09/22 00:36:07;;;;;;;8.47;7.20;;;8.70;99.90;;;;;;5050698;28;20418;-89
2022/09/22 00:38:34;;;;;;;10.93;8.40;;;8.70;99.90;;;;;;5052977;28;20440;-88
2022/09/22 00:41:01;;;;;;;8.70;7.80;;;8.70;99.90;;;;;;5057230;28;20466;-90
2022/09/22 00:43:30;;;;;;;15.17;8.03;;;8.70;99.90;;;;;;5047103;28;20560;-90
2022/09/22 00:46:00;;;;;;;9.90;8.90;;;8.60;99.90;;;;;;5035864;28;20511;-89
2022/09/22 00:48:31;;;;;;;10.60;8.40;;;8.60;99.90;;;;;;5035215;28;20453;-89
2022/09/22 00:51:00;;;;;;;9.87;8.83;;;8.50;99.90;;;;;;5034601;28;20485;-88
2022/09/22 00:53:28;;;;;;;12.03;8.37;;;8.50;99.90;;;;;;5036462;28;20441;-88
2022/09/22 00:55:59;;;;;;;10.00;7.87;;;8.50;99.90;;;;;;5052311;28;20446;-89
2022/09/22 00:58:29;;;;;;;8.97;8.00;;;8.50;99.90;;;;;;5038876;28;20958;-88
2022/09/22 01:00:56;;;;;;;11.73;8.90;;;8.50;99.90;;;;;;5047242;28;20461;-87
2022/09/22 01:03:25;;;;;;;10.97;9.20;;;8.50;99.90;;;;;;5055814;28;20444;-88
2022/09/22 01:05:55;;;;;;;12.50;8.40;;;8.50;99.90;;;;;;5037143;28;20477;-88
2022/09/22 01:08:24;;;;;;;11.00;9.90;;;8.40;99.90;;;;;;5025874;28;20452;-88
2022/09/22 01:10:53;;;;;;;10.30;8.20;;;8.30;99.90;;;;;;5034850;28;20895;-89
2022/09/22 01:13:27;;;;;;;12.33;9.40;;;8.30;99.90;;;;;;5041381;28;20453;-90
2022/09/22 01:16:18;;;;;;;10.30;8.50;;;8.40;99.90;;;;;;5033290;28;20457;-89
2022/09/22 01:19:02;;;;;;;10.00;8.17;;;8.30;99.90;;;;;;5023883;28;20446;-88
2022/09/22 01:21:40;;;;;;;9.50;8.00;;;8.30;99.90;;;;;;5035117;28;20462;-88
2022/09/22 01:28:16;;;;;;;11.40;9.30;;;8.30;99.90;;;;;;5029709;28;20425;-88
2022/09/22 01:30:47;;;;;;;10.33;8.50;;;8.20;99.90;;;;;;4993601;28;20490;-88
2022/09/22 01:33:29;;;;;;;12.67;8.43;;;8.30;99.90;;;;;;5033570;28;20483;-88
2022/09/22 01:36:15;;;;;;;10.17;8.80;;;8.20;99.90;;;;;;5027803;28;20521;-88
2022/09/22 01:38:54;;;;;;;10.57;7.80;;;8.30;99.90;;;;;;5034069;28;20438;-88
2022/09/22 01:41:41;;;;;;;13.13;9.13;;;8.20;99.90;;;;;;5045387;28;20449;-88
2022/09/22 01:44:12;;;;;;;11.80;8.57;;;8.10;99.90;;;;;;5024975;28;20449;-88
2022/09/22 01:46:50;;;;;;;11.33;8.70;;;8.00;99.90;;;;;;5046719;28;20499;-88
2022/09/22 01:49:20;;;;;;;11.20;9.50;;;8.10;99.90;;;;;;5033326;28;20437;-88
2022/09/22 01:51:51;;;;;;;9.47;8.17;;;8.00;99.90;;;;;;5033532;28;20548;-89
2022/09/22 01:54:23;;;;;;;10.10;9.10;;;8.00;99.90;;;;;;5034546;28;20450;-88
2022/09/22 01:56:55;;;;;;;11.43;7.30;;;8.00;99.90;;;;;;5026159;28;20446;-88
2022/09/22 01:59:25;;;;;;;8.83;7.50;;;7.90;99.90;;;;;;5034157;28;20422;-88
2022/09/22 02:01:57;;;;;;;9.67;7.03;;;7.90;99.90;;;;;;5034411;28;20466;-88
2022/09/22 02:04:29;;;;;;;8.50;7.13;;;7.90;99.90;;;;;;5025977;28;20446;-89
2022/09/22 02:06:59;;;;;;;11.30;7.10;;;7.90;99.90;;;;;;5032703;28;20449;-88
2022/09/22 02:09:29;;;;;;;7.77;6.23;;;7.90;99.90;;;;;;5033870;28;20441;-88
2022/09/22 02:11:56;;;;;;;6.97;5.13;;;7.90;99.90;;;;;;5034962;28;20489;-88
2022/09/22 02:14:24;;;;;;;6.83;5.63;;;7.80;99.90;;;;;;5035522;28;20814;-89
2022/09/22 02:16:51;;;;;;;6.17;5.57;;;7.90;99.90;;;;;;5035098;28;20450;-88
2022/09/22 02:19:21;;;;;;;8.23;5.63;;;7.90;99.90;;;;;;5051223;28;20449;-88
2022/09/22 02:21:49;;;;;;;8.13;5.57;;;7.90;99.90;;;;;;5038505;28;20483;-88
2022/09/22 02:24:27;;;;;;;6.70;5.60;;;8.00;99.90;;;;;;5036786;28;20449;-88
2022/09/22 02:26:56;;;;;;;5.77;5.27;;;8.00;99.90;;;;;;5054654;28;20445;-88
2022/09/22 02:29:24;;;;;;;5.97;5.33;;;8.00;99.90;;;;;;5041990;28;20445;-88
2022/09/22 02:31:53;;;;;;;6.57;5.10;;;8.00;99.90;;;;;;5035517;28;20482;-88
2022/09/22 02:34:21;;;;;;;7.50;6.03;;;7.90;99.90;;;;;;5031397;28;20450;-88
2022/09/22 02:36:55;;;;;;;5.37;4.87;;;7.90;99.90;;;;;;5035097;28;20466;-88
2022/09/22 02:39:27;;;;;;;5.60;5.00;;;7.80;99.90;;;;;;5034361;28;20438;-88
2022/09/22 02:42:10;;;;;;;8.77;5.60;;;7.80;99.90;;;;;;5034342;28;20457;-87
2022/09/22 02:44:45;;;;;;;6.50;5.00;;;7.70;99.90;;;;;;5048775;28;20447;-87
2022/09/22 02:47:16;;;;;;;7.90;5.17;;;7.70;99.90;;;;;;5047287;28;20445;-87
2022/09/22 02:49:45;;;;;;;6.07;5.53;;;7.60;99.90;;;;;;5041879;28;20921;-88
2022/09/22 02:52:14;;;;;;;6.30;5.70;;;7.60;99.90;;;;;;5032834;28;20481;-87
2022/09/22 02:54:41;;;;;;;6.30;5.10;;;7.60;99.90;;;;;;5049228;28;20441;-88
2022/09/22 02:57:09;;;;;;;7.87;5.23;;;7.60;99.90;;;;;;5047135;28;20529;-88
2022/09/22 02:59:36;;;;;;;5.87;5.20;;;7.50;99.90;;;;;;5024377;28;20454;-88
2022/09/22 03:02:03;;;;;;;7.23;6.53;;;7.50;99.90;;;;;;5033793;28;20462;-88
2022/09/22 03:04:30;;;;;;;7.30;5.30;;;7.50;99.90;;;;;;5038443;28;20442;-88
2022/09/22 03:06:58;;;;;;;6.10;5.10;;;7.50;99.90;;;;;;5040909;28;20464;-88
2022/09/22 03:09:25;;;;;;;8.30;5.60;;;7.50;99.90;;;;;;5043278;28;20444;-88
2022/09/22 03:11:52;;;;;;;6.93;6.30;;;7.40;99.90;;;;;;5040226;28;20487;-87
2022/09/22 03:14:19;;;;;;;5.13;4.63;;;7.40;99.90;;;;;;5038607;28;20438;-88
2022/09/22 03:16:46;;;;;;;9.00;5.60;;;7.40;99.90;;;;;;5037214;28;20444;-88
2022/09/22 03:19:12;;;;;;;7.27;5.20;;;7.50;99.90;;;;;;5038017;28;20460;-88
2022/09/22 03:21:39;;;;;;;6.00;5.20;;;7.50;99.90;;;;;;5040487;28;20480;-87
2022/09/22 03:24:07;;;;;;;6.77;6.17;;;7.60;99.90;;;;;;5044257;28;20445;-88
2022/09/22 03:26:34;;;;;;;7.67;4.73;;;7.50;99.90;;;;;;5044629;28;20438;-88
2022/09/22 03:29:01;;;;;;;6.07;5.47;;;7.50;99.90;;;;;;5054610;28;20410;-88
2022/09/22 03:31:28;;;;;;;7.10;5.53;;;7.40;99.90;;;;;;5047696;28;20484;-86
2022/09/22 03:33:55;;;;;;;8.03;5.67;;;7.40;99.90;;;;;;5044176;28;20484;-86
2022/09/22 03:36:22;;;;;;;5.93;5.07;;;7.40;99.90;;;;;;5056826;28;20454;-88
2022/09/22 03:38:50;;;;;;;7.43;6.03;;;7.30;99.90;;;;;;5060562;28;20468;-89
2022/09/22 03:41:19;;;;;;;6.03;5.53;;;7.30;99.90;;;;;;5057053;28;20473;-88
2022/09/22 03:43:46;;;;;;;7.20;5.20;;;7.20;99.90;;;;;;5057637;28;20444;-88
2022/09/22 03:46:13;;;;;;;6.67;5.30;;;7.20;99.90;;;;;;5038230;28;20449;-88
2022/09/22 03:48:39;;;;;;;8.03;5.40;;;7.20;99.90;;;;;;5038779;28;20454;-87
2022/09/22 03:51:06;;;;;;;9.90;5.90;;;7.10;99.90;;;;;;5051894;28;20587;-88
2022/09/22 03:53:33;;;;;;;6.67;5.27;;;7.10;99.90;;;;;;5047184;28;20438;-87
2022/09/22 03:56:07;;;;;;;9.07;6.30;;;7.10;99.90;;;;;;5038301;28;20450;-87
2022/09/22 03:58:36;;;;;;;7.23;5.73;;;7.00;99.90;;;;;;5031848;28;20450;-88
2022/09/22 04:01:03;;;;;;;7.40;5.70;;;7.00;99.90;;;;;;5030252;28;20478;-88
2022/09/22 04:03:30;;;;;;;7.67;5.83;;;7.00;99.90;;;;;;5034962;28;20493;-87
2022/09/22 04:05:57;;;;;;;6.90;5.90;;;7.00;99.90;;;;;;5036011;28;20446;-88
2022/09/22 04:08:24;;;;;;;9.00;5.97;;;7.00;99.90;;;;;;5037693;28;20448;-88
2022/09/22 04:10:51;;;;;;;6.47;5.80;;;6.90;99.90;;;;;;5043571;28;20465;-88
2022/09/22 04:13:18;;;;;;;7.53;5.87;;;6.90;99.90;;;;;;5039177;28;20474;-88
2022/09/22 04:15:46;;;;;;;6.60;5.90;;;7.00;99.90;;;;;;5045580;28;20453;-88
2022/09/22 04:18:14;;;;;;;8.73;6.80;;;6.90;99.90;;;;;;5053105;28;20509;-89
2022/09/22 04:20:43;;;;;;;7.40;5.87;;;6.90;99.90;;;;;;5039612;28;20537;-89
2022/09/22 04:23:10;;;;;;;7.23;6.53;;;6.90;99.90;;;;;;5038486;28;20951;-88
2022/09/22 04:25:36;;;;;;;8.47;7.67;;;6.90;99.90;;;;;;5036686;28;20957;-89
2022/09/22 04:28:04;;;;;;;6.77;6.03;;;6.90;99.90;;;;;;5040159;28;20453;-89
2022/09/22 04:30:31;;;;;;;9.10;8.07;;;6.80;99.90;;;;;;5049649;28;20517;-89
2022/09/22 04:32:59;;;;;;;8.57;7.30;;;6.80;99.90;;;;;;5042668;28;20477;-88
2022/09/22 04:35:27;;;;;;;14.33;8.30;;;6.80;99.90;;;;;;5036953;28;20448;-88
2022/09/22 04:37:54;;;;;;;9.67;7.40;;;6.80;99.90;;;;;;5027553;28;20450;-88
2022/09/22 04:40:22;;;;;;;10.27;8.13;;;6.70;99.90;;;;;;5035881;28;20445;-88
2022/09/22 04:42:49;;;;;;;10.07;8.27;;;6.70;99.90;;;;;;5041406;28;20487;-88
2022/09/22 04:45:16;;;;;;;17.63;8.40;;;6.70;99.90;;;;;;5038597;28;20457;-88
2022/09/22 04:47:44;;;;;;;18.17;8.57;;;6.80;99.90;;;;;;5037737;28;20537;-88
2022/09/22 04:50:13;;;;;;;17.10;8.27;;;6.80;99.90;;;;;;5040612;28;20446;-89
2022/09/22 04:52:42;;;;;;;13.07;8.97;;;6.70;99.90;;;;;;5035798;28;20474;-88
2022/09/22 04:55:10;;;;;;;13.63;9.13;;;6.70;99.90;;;;;;5037090;28;20950;-89
2022/09/22 04:57:38;;;;;;;12.03;8.77;;;6.60;99.90;;;;;;5038024;28;20442;-88
2022/09/22 05:00:06;;;;;;;16.13;9.10;;;6.60;99.90;;;;;;5035813;28;20465;-88
2022/09/22 05:02:34;;;;;;;13.47;10.20;;;6.50;99.90;;;;;;5038226;28;20473;-87
2022/09/22 05:05:02;;;;;;;13.10;9.67;;;6.50;99.90;;;;;;5050054;28;20440;-89
2022/09/22 05:07:30;;;;;;;14.10;9.60;;;6.60;99.90;;;;;;5042592;28;20442;-88
2022/09/22 05:09:57;;;;;;;18.23;11.70;;;6.60;99.90;;;;;;5031596;28;20450;-89
2022/09/22 05:12:25;;;;;;;25.53;12.50;;;6.60;99.90;;;;;;5034268;28;20523;-88
2022/09/22 05:14:52;;;;;;;15.73;12.47;;;6.60;99.90;;;;;;5049588;28;20446;-88
2022/09/22 05:17:19;;;;;;;16.20;12.67;;;6.60;99.90;;;;;;5052596;28;20911;-88
2022/09/22 05:19:46;;;;;;;21.93;13.23;;;6.60;99.90;;;;;;5052511;28;20520;-88
2022/09/22 05:22:13;;;;;;;18.60;12.77;;;6.60;99.90;;;;;;5051892;28;20455;-88
2022/09/22 05:24:41;;;;;;;15.90;11.10;;;6.60;99.90;;;;;;5035767;28;20500;-89
2022/09/22 05:27:08;;;;;;;21.90;12.80;;;6.60;99.90;;;;;;5035790;28;20568;-89
2022/09/22 05:29:35;;;;;;;17.30;12.30;;;6.60;99.90;;;;;;5035983;28;20441;-88
2022/09/22 05:32:02;;;;;;;16.63;12.93;;;6.70;99.90;;;;;;5035372;28;20855;-89
2022/09/22 05:34:29;;;;;;;15.23;12.70;;;6.60;99.90;;;;;;5034829;28;20442;-88
2022/09/22 05:36:55;;;;;;;12.43;11.20;;;6.60;99.90;;;;;;5035437;28;20445;-88
2022/09/22 05:39:22;;;;;;;19.73;12.70;;;6.60;99.90;;;;;;5034068;28;20442;-88
2022/09/22 05:41:53;;;;;;;15.97;11.97;;;6.70;99.90;;;;;;5035945;28;20462;-88
2022/09/22 05:44:22;;;;;;;22.10;13.90;;;6.70;99.90;;;;;;5032109;28;20857;-86
2022/09/22 05:46:49;;;;;;;29.03;15.70;;;6.80;99.90;;;;;;5032949;28;20453;-87
2022/09/22 05:49:16;;;;;;;23.27;14.73;;;6.80;99.90;;;;;;5038579;28;20426;-87
2022/09/22 05:51:42;;;;;;;22.10;12.00;;;6.90;99.90;;;;;;5041372;28;20464;-87
2022/09/22 05:54:09;;;;;;;20.20;12.67;;;6.90;99.90;;;;;;5035901;28;20499;-87
2022/09/22 05:56:36;;;;;;;17.70;14.30;;;6.90;99.90;;;;;;5034775;28;20511;-89
2022/09/22 05:59:04;;;;;;;21.67;13.03;;;7.00;99.90;;;;;;5039349;28;20442;-86
2022/09/22 06:01:31;;;;;;;26.67;13.67;;;7.00;99.90;;;;;;5034279;28;20473;-87
2022/09/22 06:03:58;;;;;;;16.20;12.50;;;7.00;99.90;;;;;;5048074;28;20527;-87
2022/09/22 06:06:25;;;;;;;24.73;15.00;;;7.10;99.90;;;;;;5044846;28;20445;-89
2022/09/22 06:08:53;;;;;;;16.87;13.80;;;7.10;99.90;;;;;;5043266;28;20446;-88
2022/09/22 06:11:20;;;;;;;24.30;12.57;;;7.10;99.90;;;;;;5040384;28;20454;-89
2022/09/22 06:13:50;;;;;;;15.17;12.90;;;7.20;99.90;;;;;;5044394;28;20852;-88
2022/09/22 06:16:18;;;;;;;14.77;12.37;;;7.20;99.90;;;;;;5045518;28;20453;-91
2022/09/22 06:18:46;;;;;;;21.03;12.73;;;7.20;99.90;;;;;;5039476;28;20442;-89
2022/09/22 06:21:12;;;;;;;17.83;13.37;;;7.20;99.90;;;;;;5034876;28;20520;-89
2022/09/22 06:23:39;;;;;;;24.60;12.23;;;7.20;99.90;;;;;;5036135;28;20441;-89
2022/09/22 06:26:06;;;;;;;16.50;12.47;;;7.30;99.90;;;;;;5062656;22;20493;-86
2022/09/22 06:28:33;;;;;;;22.77;13.40;;;7.30;99.90;;;;;;5050094;28;20456;-85
2022/09/22 06:31:00;;;;;;;17.37;11.67;;;7.40;99.90;;;;;;5051599;28;20487;-85
2022/09/22 06:33:28;;;;;;;14.77;12.37;;;7.50;99.90;;;;;;5047779;28;20480;-86
2022/09/22 06:35:56;;;;;;;21.03;12.90;;;7.50;99.90;;;;;;5040908;28;20468;-85
2022/09/22 06:38:23;;;;;;;18.90;13.60;;;7.60;99.90;;;;;;5044458;28;20455;-86
2022/09/22 06:41:00;;;;;;;17.07;12.40;;;7.60;99.90;;;;;;5050204;28;20438;-86
2022/09/22 06:43:27;;;;;;;19.23;12.70;;;7.70;99.90;;;;;;5025191;28;20457;-85
2022/09/22 06:45:54;;;;;;;17.40;11.80;;;7.70;99.90;;;;;;5034224;28;20457;-85
2022/09/22 06:48:22;;;;;;;20.83;12.50;;;7.90;99.90;;;;;;5041391;28;20427;-85
2022/09/22 06:50:51;;;;;;;13.80;11.73;;;7.90;99.90;;;;;;5040932;28;20446;-85
2022/09/22 06:53:19;;;;;;;20.60;12.77;;;8.00;99.90;;;;;;5040741;28;20462;-86
2022/09/22 06:55:46;;;;;;;14.53;12.70;;;8.10;99.90;;;;;;5025521;28;20852;-85
2022/09/22 06:58:14;;;;;;;17.90;10.93;;;8.10;99.90;;;;;;5025918;28;20458;-87
2022/09/22 07:00:42;;;;;;;16.17;12.53;;;8.20;99.90;;;;;;5021183;28;20499;-85
2022/09/22 07:03:15;;;;;;;16.90;13.77;;;8.30;99.90;;;;;;5035236;28;20449;-88
2022/09/22 07:05:42;;;;;;;12.93;11.63;;;8.40;99.90;;;;;;5035122;28;20508;-88
2022/09/22 07:08:10;;;;;;;17.20;11.40;;;8.50;99.90;;;;;;5047857;28;20457;-87
2022/09/22 07:10:37;;;;;;;20.83;11.90;;;8.60;99.90;;;;;;5055913;28;20537;-88
2022/09/22 07:13:04;;;;;;;15.90;12.40;;;8.60;99.90;;;;;;5040399;28;21005;-87
2022/09/22 07:15:32;;;;;;;19.60;11.87;;;8.70;99.90;;;;;;5058765;28;20521;-87
2022/09/22 07:17:59;;;;;;;13.33;11.17;;;8.80;99.90;;;;;;5045324;28;20497;-87
2022/09/22 07:20:27;;;;;;;17.30;11.90;;;8.90;99.90;;;;;;5036390;28;20442;-87
2022/09/22 07:22:59;;;;;;;13.60;11.87;;;8.80;99.90;;;;;;5037032;28;20806;-88
2022/09/22 07:25:28;;;;;;;15.87;9.93;;;9.10;99.90;;;;;;5037735;28;20921;-87
2022/09/22 07:27:56;;;;;;;11.50;10.23;;;9.50;99.90;;;;;;5037824;28;20473;-88
2022/09/22 07:30:23;;;;;;;10.60;9.30;;;9.70;99.90;;;;;;5037644;28;20807;-85
2022/09/22 07:32:50;;;;;;;11.30;10.20;;;9.90;99.90;;;;;;5036526;28;20489;-88
2022/09/22 07:35:17;;;;;;;14.03;9.93;;;10.00;99.90;;;;;;5035479;28;20831;-87
2022/09/22 07:37:45;;;;;;;14.83;9.57;;;10.20;99.90;;;;;;5036242;28;20484;-87
2022/09/22 07:40:13;;;;;;;12.70;11.47;;;10.20;99.90;;;;;;5040545;28;20453;-87
2022/09/22 07:42:41;;;;;;;12.13;9.97;;;10.20;99.90;;;;;;5036193;28;20499;-81
2022/09/22 07:45:13;;;;;;;9.43;8.43;;;10.30;99.90;;;;;;5040482;28;20465;-82
2022/09/22 07:50:24;;;;;;;12.20;9.97;;;10.50;99.90;;;;;;5045522;28;20812;-81
2022/09/22 07:52:51;;;;;;;12.50;9.67;;;10.60;99.90;;;;;;5043962;28;20492;-81
2022/09/22 07:55:20;;;;;;;9.70;8.70;;;10.90;99.90;;;;;;5042066;28;20531;-83
2022/09/22 07:57:54;;;;;;;12.40;9.10;;;11.30;99.90;;;;;;5058988;28;20454;-86
2022/09/22 08:00:21;;;;;;;10.63;9.53;;;11.60;99.90;;;;;;5058782;28;20480;-86
2022/09/22 08:02:53;;;;;;;13.10;8.70;;;11.70;99.90;;;;;;5044085;28;20632;-86
2022/09/22 08:05:20;;;;;;;9.07;8.00;;;11.90;99.90;;;;;;5035595;28;20473;-86
2022/09/22 08:07:46;;;;;;;10.40;8.10;;;12.00;99.90;;;;;;5036294;28;20994;-86
2022/09/22 08:10:14;;;;;;;10.03;9.03;;;12.10;99.90;;;;;;5034200;28;20858;-87
2022/09/22 08:12:41;;;;;;;11.07;9.23;;;12.20;99.90;;;;;;5034389;28;20454;-87
2022/09/22 08:15:11;;;;;;;12.50;10.73;;;12.20;99.90;;;;;;5034223;28;20452;-87
2022/09/22 08:17:38;;;;;;;16.77;10.73;;;12.20;99.90;;;;;;5035783;28;20450;-87
2022/09/22 08:20:06;;;;;;;16.40;10.00;;;12.40;99.90;;;;;;5053151;28;20452;-87
2022/09/22 08:22:33;;;;;;;10.90;8.57;;;12.70;99.90;;;;;;5055601;28;20493;-87
2022/09/22 08:25:00;;;;;;;8.63;7.73;;;13.10;99.90;;;;;;5051806;28;20520;-87
2022/09/22 08:27:27;;;;;;;10.87;9.77;;;13.20;99.90;;;;;;5044574;28;20879;-87
2022/09/22 08:29:54;;;;;;;9.47;7.83;;;13.30;99.90;;;;;;5063932;28;20425;-88
2022/09/22 08:32:25;;;;;;;10.70;8.17;;;13.90;99.90;;;;;;5053653;28;20935;-87
2022/09/22 08:34:56;;;;;;;9.13;8.10;;;14.20;99.90;;;;;;5038137;28;20489;-87
2022/09/22 08:37:26;;;;;;;10.37;7.70;;;14.80;99.90;;;;;;5043899;28;20451;-87
2022/09/22 08:39:53;;;;;;;10.93;9.83;;;15.10;99.30;;;;;;5039503;28;20476;-87
2022/09/22 08:42:22;;;;;;;8.93;7.33;;;15.40;98.50;;;;;;5042062;28;20821;-87
2022/09/22 08:44:57;;;;;;;6.20;5.60;;;15.50;98.00;;;;;;5041917;28;20495;-87
2022/09/22 08:53:16;;;;;;;5.57;5.00;;;15.90;95.70;;;;;;5036155;28;20546;-88
2022/09/22 08:55:47;;;;;;;4.63;4.20;;;16.00;95.00;;;;;;5048646;28;20513;-87
2022/09/22 08:58:26;;;;;;;4.73;4.27;;;16.00;95.00;;;;;;5057662;28;20418;-87
2022/09/22 09:01:01;;;;;;;8.23;4.40;;;16.40;94.50;;;;;;5063016;28;20428;-88
2022/09/22 09:03:39;;;;;;;6.30;3.80;;;18.70;92.40;;;;;;5058162;28;20446;-88
2022/09/22 09:06:15;;;;;;;4.53;4.13;;;22.00;83.10;;;;;;5047759;28;20528;-88
2022/09/22 09:09:10;;;;;;;4.23;3.80;;;24.90;69.20;;;;;;5056633;28;20436;-87
2022/09/22 09:12:02;;;;;;;3.30;3.00;;;26.80;57.40;;;;;;5032791;28;20481;-88
2022/09/22 09:14:56;;;;;;;4.20;3.80;;;27.10;54.70;;;;;;5027986;28;20477;-87
2022/09/22 09:17:27;;;;;;;3.27;2.97;;;26.90;53.30;;;;;;5038949;28;20464;-88
2022/09/22 09:20:01;;;;;;;4.47;3.87;;;28.90;51.20;;;;;;5049790;28;20433;-88
2022/09/22 09:22:33;;;;;;;3.70;3.40;;;30.30;47.60;;;;;;5032655;28;20436;-88
2022/09/22 09:25:04;;;;;;;4.27;3.87;;;29.30;46.80;;;;;;5032491;28;20555;-88
2022/09/22 09:27:39;;;;;;;4.13;3.73;;;29.90;46.40;;;;;;5029875;28;20450;-88
2022/09/22 09:30:13;;;;;;;4.50;4.10;;;31.00;43.70;;;;;;5032672;28;20633;-89
2022/09/22 09:32:48;;;;;;;3.63;3.33;;;30.30;43.30;;;;;;5032632;28;20546;-88
2022/09/22 09:35:19;;;;;;;5.20;3.97;;;30.00;42.80;;;;;;5030600;28;20475;-89
2022/09/22 09:37:47;;;;;;;3.57;3.00;;;30.70;43.20;;;;;;5029582;28;20494;-88
2022/09/22 09:40:17;;;;;;;3.53;3.23;;;30.80;41.10;;;;;;5031873;28;20504;-88
2022/09/22 09:42:46;;;;;;;3.47;3.17;;;31.60;41.00;;;;;;5032248;28;20533;-88
2022/09/22 09:45:16;;;;;;;4.53;3.20;;;32.00;39.60;;;;;;5031910;28;20525;-88
2022/09/22 09:47:55;;;;;;;3.67;3.37;;;32.70;39.60;;;;;;5032182;28;20532;-88
2022/09/22 09:50:26;;;;;;;7.10;3.30;;;33.70;38.00;;;;;;5032175;28;20441;-88
2022/09/22 09:52:53;;;;;;;4.83;3.63;;;34.20;36.70;;;;;;5032633;28;20448;-88
2022/09/22 09:55:24;;;;;;;3.17;2.70;;;34.00;36.50;;;;;;5031872;28;20631;-88
2022/09/22 09:58:06;;;;;;;3.60;3.00;;;33.60;35.80;;;;;;5030307;28;20495;-88
2022/09/22 10:00:33;;;;;;;3.77;3.07;;;33.00;36.90;;;;;;5056024;28;20432;-88
2022/09/22 10:03:13;;;;;;;4.43;3.40;;;33.70;36.40;;;;;;5041106;28;20453;-88
2022/09/22 10:05:42;;;;;;;4.10;3.37;;;33.90;35.40;;;;;;5050623;28;20495;-88
2022/09/22 10:08:19;;;;;;;4.07;2.70;;;33.50;35.00;;;;;;5038579;28;20453;-88
2022/09/22 10:10:47;;;;;;;3.40;2.97;;;32.80;36.60;;;;;;5060079;28;20426;-88
2022/09/22 10:13:31;;;;;;;2.63;1.87;;;33.00;36.20;;;;;;5045757;28;20452;-88
2022/09/22 10:16:20;;;;;;;3.20;1.77;;;32.80;34.60;;;;;;5032249;28;20479;-88
2022/09/22 10:18:50;;;;;;;1.50;1.30;;;34.40;33.90;;;;;;5039569;28;20476;-88
2022/09/22 10:21:20;;;;;;;2.20;1.33;;;35.20;32.20;;;;;;5042495;28;20799;-88
2022/09/22 10:23:48;;;;;;;1.43;0.90;;;34.50;31.70;;;;;;5053807;28;20445;-88
2022/09/22 10:26:18;;;;;;;1.50;1.07;;;33.50;32.00;;;;;;5039317;28;20476;-88
2022/09/22 10:29:05;;;;;;;1.63;1.20;;;33.00;33.40;;;;;;5035473;28;20532;-84
2022/09/22 10:31:32;;;;;;;3.00;1.67;;;33.30;31.90;;;;;;5046957;28;21273;-84
2022/09/22 10:34:00;;;;;;;2.00;1.10;;;33.10;32.50;;;;;;5039157;28;20508;-85
2022/09/22 10:36:32;;;;;;;3.50;1.50;;;32.30;32.60;;;;;;5031421;28;20535;-84
2022/09/22 10:38:59;;;;;;;4.47;2.10;;;32.50;32.40;;;;;;5034608;28;20460;-85
2022/09/22 10:41:32;;;;;;;6.17;1.50;;;31.60;34.20;;;;;;5034002;28;20446;-84
2022/09/22 10:44:04;;;;;;;2.90;1.00;;;31.10;33.20;;;;;;5033317;28;20451;-84
2022/09/22 10:46:50;;;;;;;1.40;1.13;;;31.20;33.40;;;;;;5042228;28;20511;-84
2022/09/22 10:49:29;;;;;;;3.20;1.20;;;30.60;34.80;;;;;;5040996;28;20504;-85
2022/09/22 10:52:07;;;;;;;1.87;1.37;;;31.20;34.00;;;;;;5032224;28;20456;-85
2022/09/22 10:54:51;;;;;;;4.73;1.13;;;31.00;33.90;;;;;;5031708;28;20485;-84
2022/09/22 10:57:36;;;;;;;3.00;1.40;;;30.80;34.90;;;;;;5042122;28;20495;-85
2022/09/22 11:00:21;;;;;;;7.43;1.93;;;30.70;33.60;;;;;;5052404;28;20453;-85
2022/09/22 11:03:28;;;;;;;2.20;1.30;;;31.50;33.40;;;;;;5032797;28;20523;-86
2022/09/22 11:12:16;;;;;;;1.40;0.93;;;32.80;32.40;;;;;;5031895;28;20889;-85
2022/09/22 11:15:06;;;;;;;1.70;1.40;;;31.50;31.00;;;;;;5032268;28;20851;-85
2022/09/22 11:18:09;;;;;;;1.90;1.30;;;32.10;32.50;;;;;;5032488;28;20512;-84
2022/09/22 11:20:38;;;;;;;2.00;1.13;;;32.30;31.80;;;;;;5051016;28;20484;-83
2022/09/22 11:23:28;;;;;;;1.40;1.07;;;31.00;32.40;;;;;;5057216;28;20467;-84
2022/09/22 11:26:17;;;;;;;1.70;1.20;;;30.70;33.30;;;;;;5043712;28;20939;-84
2022/09/22 11:29:00;;;;;;;1.40;1.07;;;31.60;32.50;;;;;;5037527;28;20454;-85
2022/09/22 11:31:41;;;;;;;4.43;1.00;;;32.60;30.90;;;;;;5035187;28;20534;-85
2022/09/22 11:34:27;;;;;;;1.50;1.00;;;31.90;30.80;;;;;;5037353;28;21083;-86
2022/09/22 11:37:24;;;;;;;1.77;1.20;;;31.10;32.60;;;;;;5035510;28;20475;-85
2022/09/22 11:40:02;;;;;;;2.57;1.80;;;33.20;30.60;;;;;;5035432;28;20472;-85
2022/09/22 11:42:40;;;;;;;3.20;1.60;;;32.20;30.60;;;;;;5051450;28;20446;-85
2022/09/22 11:45:21;;;;;;;2.27;1.33;;;30.90;32.00;;;;;;5054678;28;20441;-85
2022/09/22 11:47:57;;;;;;;1.90;1.50;;;29.80;33.20;;;;;;5036398;28;20456;-85
2022/09/22 11:50:40;;;;;;;1.27;1.10;;;31.30;32.90;;;;;;5045070;28;20453;-84
2022/09/22 11:53:27;;;;;;;2.33;1.40;;;30.80;31.80;;;;;;5055136;28;20464;-85
2022/09/22 11:56:12;;;;;;;2.23;1.50;;;29.80;33.00;;;;;;5054528;28;20776;-84
2022/09/22 11:58:43;;;;;;;3.30;1.40;;;29.80;32.60;;;;;;5055301;28;20451;-85
2022/09/22 12:01:13;;;;;;;2.23;1.20;;;29.70;33.10;;;;;;5055005;28;20519;-85
2022/09/22 12:03:44;;;;;;;2.87;1.27;;;29.50;33.60;;;;;;5055354;28;20829;-84
2022/09/22 12:06:15;;;;;;;1.60;0.97;;;30.40;34.00;;;;;;5054148;28;20473;-85
2022/09/22 12:08:45;;;;;;;1.93;1.50;;;31.30;33.60;;;;;;5070049;28;20421;-84
2022/09/22 12:11:15;;;;;;;1.83;1.20;;;31.80;31.70;;;;;;5074973;28;20441;-84
2022/09/22 12:13:49;;;;;;;1.60;1.20;;;31.30;31.70;;;;;;5049089;28;20446;-85
2022/09/22 12:16:21;;;;;;;1.37;1.00;;;30.70;31.70;;;;;;5034462;28;20464;-85
2022/09/22 12:18:53;;;;;;;2.57;1.17;;;30.20;31.70;;;;;;5036274;28;20457;-85
2022/09/22 12:21:33;;;;;;;2.03;1.43;;;30.40;32.20;;;;;;5034612;28;20826;-85
2022/09/22 12:24:02;;;;;;;3.83;1.33;;;30.20;32.10;;;;;;5033869;28;20444;-85
2022/09/22 12:26:31;;;;;;;2.20;1.70;;;29.80;33.40;;;;;;5046501;22;20577;-84
2022/09/22 12:29:01;;;;;;;2.13;1.60;;;30.30;32.30;;;;;;5035965;28;20550;-82
2022/09/22 12:31:36;;;;;;;2.10;0.93;;;30.90;32.10;;;;;;5036584;28;20452;-83
2022/09/22 12:34:05;;;;;;;1.80;1.10;;;31.30;30.70;;;;;;5035080;28;20491;-83
2022/09/22 12:36:34;;;;;;;1.63;1.23;;;31.50;31.90;;;;;;5034457;28;20562;-83
2022/09/22 12:39:09;;;;;;;2.37;1.40;;;31.30;31.40;;;;;;5036356;28;20453;-83
2022/09/22 12:41:47;;;;;;;4.10;1.77;;;30.80;32.10;;;;;;5035972;28;20430;-83
2022/09/22 12:44:20;;;;;;;1.57;1.00;;;31.00;32.30;;;;;;5037438;28;20938;-83
2022/09/22 12:46:49;;;;;;;1.60;1.30;;;32.00;31.50;;;;;;5039116;28;20493;-84
2022/09/22 12:49:18;;;;;;;1.47;1.03;;;31.80;29.90;;;;;;5038622;28;20823;-83
2022/09/22 12:51:45;;;;;;;2.30;1.27;;;30.60;30.80;;;;;;5040599;28;20456;-82
2022/09/22 12:54:37;;;;;;;2.47;1.40;;;31.30;31.50;;;;;;5038232;28;20487;-84
2022/09/22 12:57:22;;;;;;;2.40;1.47;;;32.10;30.80;;;;;;5045278;28;20489;-82
2022/09/22 13:00:28;;;;;;;1.70;1.20;;;31.50;30.60;;;;;;5041827;28;20457;-83
2022/09/22 13:02:56;;;;;;;2.27;1.30;;;30.20;31.80;;;;;;5048833;28;20441;-83
2022/09/22 13:05:41;;;;;;;1.83;1.30;;;30.80;32.20;;;;;;5049115;28;20453;-83
2022/09/22 13:08:24;;;;;;;1.63;1.10;;;30.70;31.90;;;;;;5053192;28;20587;-83
2022/09/22 13:10:54;;;;;;;1.77;1.20;;;30.80;31.90;;;;;;5041952;28;20445;-83
2022/09/22 13:13:23;;;;;;;1.53;1.07;;;31.10;31.60;;;;;;5046910;28;20459;-83
2022/09/22 13:16:00;;;;;;;1.80;1.33;;;30.60;31.70;;;;;;5055663;28;20864;-82
2022/09/22 13:18:32;;;;;;;2.57;1.10;;;28.80;33.30;;;;;;5055058;28;20543;-82
2022/09/22 13:20:59;;;;;;;2.87;1.47;;;26.90;35.20;;;;;;5055131;28;20452;-83
2022/09/22 13:23:26;;;;;;;8.00;2.03;;;25.40;37.90;;;;;;5055398;28;20466;-82
2022/09/22 13:25:54;;;;;;;1.80;1.50;;;24.70;39.40;;;;;;5054178;28;20478;-83